createdAt,value
2023-01-19T00:00:19.296Z,2.20
2023-01-19T00:02:47.517Z,2.28
2023-01-19T00:05:14.856Z,2.11
2023-01-19T00:07:42.026Z,2.08
2023-01-19T00:10:10.316Z,2.04
2023-01-19T00:12:37.038Z,2.09
2023-01-19T00:15:04.127Z,2.13
2023-01-19T00:17:30.782Z,2.05
2023-01-19T00:19:57.410Z,2.03
2023-01-19T00:22:24.103Z,2.08
2023-01-19T00:24:50.826Z,2.04
2023-01-19T00:27:17.579Z,2.00
2023-01-19T00:29:44.355Z,2.06
2023-01-19T00:32:11.057Z,2.00
2023-01-19T00:34:39.592Z,1.98
2023-01-19T00:37:07.560Z,1.99
2023-01-19T00:39:34.506Z,1.97
2023-01-19T00:42:19.657Z,1.94
2023-01-19T00:44:46.434Z,1.88
2023-01-19T00:47:13.208Z,1.92
2023-01-19T00:49:40.000Z,1.86
2023-01-19T00:52:06.957Z,1.85
2023-01-19T00:54:33.765Z,1.85
2023-01-19T00:57:00.472Z,1.88
2023-01-19T00:59:27.190Z,1.86
2023-01-19T01:01:54.025Z,1.85
2023-01-19T01:04:20.891Z,1.90
2023-01-19T01:06:47.603Z,1.82
2023-01-19T01:09:14.291Z,1.76
2023-01-19T01:11:42.732Z,1.72
2023-01-19T01:14:11.932Z,1.73
2023-01-19T01:16:38.950Z,1.66
2023-01-19T01:19:05.648Z,1.71
2023-01-19T01:21:34.561Z,1.65
2023-01-19T01:24:02.208Z,1.68
2023-01-19T01:26:29.045Z,1.53
2023-01-19T01:28:55.783Z,1.56
2023-01-19T01:31:22.371Z,1.58
2023-01-19T01:33:49.002Z,1.72
2023-01-19T01:36:16.004Z,1.64
2023-01-19T01:38:42.773Z,1.60
2023-01-19T01:41:09.681Z,1.57
2023-01-19T01:43:49.694Z,1.60
2023-01-19T01:46:17.586Z,1.62
2023-01-19T01:48:49.880Z,1.58
2023-01-19T01:51:25.463Z,1.56
2023-01-19T01:54:11.735Z,1.56
2023-01-19T01:56:43.406Z,1.55
2023-01-19T01:59:25.631Z,1.53
2023-01-19T02:02:14.413Z,1.55
2023-01-19T02:04:52.248Z,1.51
2023-01-19T02:08:09.536Z,1.39
2023-01-19T02:10:54.725Z,1.43
2023-01-19T02:13:21.483Z,1.44
2023-01-19T02:15:50.224Z,1.37
2023-01-19T02:18:17.527Z,1.40
2023-01-19T02:20:59.108Z,1.46
2023-01-19T02:23:50.598Z,1.48
2023-01-19T02:26:22.288Z,1.47
2023-01-19T02:29:00.447Z,1.48
2023-01-19T02:31:30.432Z,1.51
2023-01-19T02:33:58.743Z,1.51
2023-01-19T02:36:31.364Z,1.68
2023-01-19T02:39:00.200Z,1.59
2023-01-19T02:41:30.873Z,1.53
2023-01-19T02:43:58.931Z,1.43
2023-01-19T02:46:25.876Z,1.45
2023-01-19T02:48:52.556Z,1.44
2023-01-19T02:51:24.330Z,1.47
2023-01-19T02:54:06.230Z,1.51
2023-01-19T02:57:10.557Z,1.51
2023-01-19T02:59:46.102Z,1.53
2023-01-19T03:02:27.648Z,1.43
2023-01-19T03:05:11.095Z,1.41
2023-01-19T03:08:16.291Z,1.38
2023-01-19T03:11:11.646Z,1.36
2023-01-19T03:13:56.470Z,1.53
2023-01-19T03:16:49.549Z,1.39
2023-01-19T03:19:21.812Z,1.34
2023-01-19T03:21:54.489Z,1.31
2023-01-19T03:24:23.666Z,1.39
2023-01-19T03:26:58.886Z,1.37
2023-01-19T03:29:30.204Z,1.40
2023-01-19T03:31:59.948Z,1.47
2023-01-19T03:34:28.935Z,1.41
2023-01-19T03:37:00.496Z,1.40
2023-01-19T03:39:28.500Z,1.47
2023-01-19T03:42:05.064Z,1.43
2023-01-19T03:44:34.937Z,1.35
2023-01-19T03:47:04.492Z,1.31
2023-01-19T03:49:32.442Z,1.33
2023-01-19T03:51:59.965Z,1.22
2023-01-19T03:54:27.426Z,1.18
2023-01-19T03:56:54.179Z,1.16
2023-01-19T03:59:21.920Z,1.38
2023-01-19T04:01:49.078Z,1.27
2023-01-19T04:04:15.940Z,1.21
2023-01-19T04:06:43.810Z,1.30
2023-01-19T04:09:10.719Z,1.33
2023-01-19T04:11:37.485Z,1.34
2023-01-19T04:14:04.367Z,1.26
2023-01-19T04:16:31.079Z,1.22
2023-01-19T04:18:57.889Z,1.24
2023-01-19T04:21:24.546Z,1.15
2023-01-19T04:23:53.183Z,1.23
2023-01-19T04:26:20.153Z,1.12
2023-01-19T04:28:46.917Z,1.24
2023-01-19T04:31:14.406Z,1.16
2023-01-19T04:33:41.450Z,1.26
2023-01-19T04:36:08.742Z,1.22
2023-01-19T04:38:35.987Z,1.10
2023-01-19T04:41:02.925Z,1.13
2023-01-19T04:43:29.559Z,1.14
2023-01-19T04:45:56.930Z,1.26
2023-01-19T04:48:23.668Z,1.23
2023-01-19T04:50:52.523Z,1.29
2023-01-19T04:53:19.362Z,1.27
2023-01-19T04:55:46.705Z,1.25
2023-01-19T04:58:13.445Z,0.97
2023-01-19T05:00:40.312Z,1.04
2023-01-19T05:03:07.130Z,1.09
2023-01-19T05:05:34.195Z,1.00
2023-01-19T05:08:01.058Z,0.99
2023-01-19T05:10:27.941Z,0.89
2023-01-19T05:12:55.140Z,0.84
2023-01-19T05:15:22.083Z,0.80
2023-01-19T05:17:48.892Z,0.88
2023-01-19T05:20:16.538Z,0.98
2023-01-19T05:22:48.811Z,1.03
2023-01-19T05:25:15.617Z,1.21
2023-01-19T05:27:42.276Z,1.12
2023-01-19T05:30:09.740Z,1.25
2023-01-19T05:32:36.535Z,1.19
2023-01-19T05:35:03.253Z,1.24
2023-01-19T05:37:31.737Z,1.26
2023-01-19T05:39:58.637Z,1.24
2023-01-19T05:42:25.277Z,1.25
2023-01-19T05:44:52.794Z,1.24
2023-01-19T05:47:19.402Z,1.31
2023-01-19T05:49:46.240Z,1.29
2023-01-19T05:52:12.813Z,1.27
2023-01-19T05:54:40.524Z,1.25
2023-01-19T05:57:07.707Z,1.13
2023-01-19T05:59:34.722Z,1.24
2023-01-19T06:02:01.484Z,1.32
2023-01-19T06:04:28.321Z,1.22
2023-01-19T06:06:54.954Z,1.19
2023-01-19T06:09:21.852Z,1.19
2023-01-19T06:11:48.627Z,1.29
2023-01-19T06:14:15.677Z,1.22
2023-01-19T06:16:42.310Z,1.34
2023-01-19T06:19:09.606Z,1.18
2023-01-19T06:21:36.265Z,1.12
2023-01-19T06:24:03.537Z,1.10
2023-01-19T06:26:30.152Z,1.00
2023-01-19T06:28:56.813Z,0.98
2023-01-19T06:31:23.505Z,1.13
2023-01-19T06:33:50.324Z,1.13
2023-01-19T06:36:16.916Z,1.12
2023-01-19T06:38:44.046Z,1.02
2023-01-19T06:41:10.691Z,1.01
2023-01-19T06:43:37.486Z,0.97
2023-01-19T06:46:04.926Z,1.04
2023-01-19T06:48:31.826Z,1.15
2023-01-19T06:50:59.706Z,1.10
2023-01-19T06:53:28.064Z,1.12
2023-01-19T06:56:01.834Z,1.08
2023-01-19T06:58:29.620Z,1.30
2023-01-19T07:01:00.503Z,1.31
2023-01-19T07:03:27.192Z,1.11
2023-01-19T07:05:54.234Z,1.19
2023-01-19T07:08:20.885Z,1.17
2023-01-19T07:11:25.098Z,1.19
2023-01-19T07:13:35.746Z,1.29
2023-01-19T07:16:11.412Z,1.21
2023-01-19T07:18:39.408Z,1.34
2023-01-19T07:21:07.322Z,1.27
2023-01-19T07:23:34.900Z,1.26
2023-01-19T07:26:02.203Z,1.26
2023-01-19T07:28:29.857Z,1.30
2023-01-19T07:30:56.856Z,1.32
2023-01-19T07:33:24.971Z,1.30
2023-01-19T07:35:52.731Z,1.56
2023-01-19T07:38:19.875Z,1.45
2023-01-19T07:40:49.463Z,1.31
2023-01-19T07:43:16.490Z,1.30
2023-01-19T07:45:43.454Z,1.32
2023-01-19T07:48:10.213Z,1.49
2023-01-19T07:50:36.935Z,1.37
2023-01-19T07:53:08.463Z,1.32
2023-01-19T07:55:36.154Z,1.33
2023-01-19T07:58:06.725Z,1.41
2023-01-19T08:00:35.336Z,1.54
2023-01-19T08:03:04.202Z,1.44
2023-01-19T08:05:32.612Z,1.47
2023-01-19T08:07:59.479Z,1.48
2023-01-19T08:10:28.194Z,1.65
2023-01-19T08:12:56.039Z,1.73
2023-01-19T08:15:24.934Z,1.75
2023-01-19T08:17:56.983Z,1.72
2023-01-19T08:20:24.400Z,1.71
2023-01-19T08:22:51.349Z,1.74
2023-01-19T08:25:18.558Z,1.71
2023-01-19T08:27:45.379Z,1.95
2023-01-19T08:30:12.247Z,1.93
2023-01-19T08:32:40.070Z,2.02
2023-01-19T08:35:07.523Z,2.06
2023-01-19T08:37:34.379Z,2.26
2023-01-19T08:40:01.136Z,2.41
2023-01-19T08:42:28.305Z,2.42
2023-01-19T08:44:58.491Z,2.60
2023-01-19T08:47:25.462Z,2.52
2023-01-19T08:49:52.327Z,2.62
2023-01-19T08:52:19.010Z,2.54
2023-01-19T08:54:45.879Z,2.64
2023-01-19T08:57:12.471Z,2.53
2023-01-19T08:59:39.207Z,2.63
2023-01-19T09:02:06.073Z,2.62
2023-01-19T09:04:34.598Z,2.59
2023-01-19T09:07:01.360Z,2.66
2023-01-19T09:09:28.075Z,2.65
2023-01-19T09:11:55.850Z,2.66
2023-01-19T09:14:22.770Z,2.90
2023-01-19T09:16:49.689Z,2.88
2023-01-19T09:19:16.921Z,2.86
2023-01-19T09:21:43.643Z,2.94
2023-01-19T09:24:10.423Z,2.90
2023-01-19T09:26:37.196Z,3.04
2023-01-19T09:29:03.931Z,3.01
2023-01-19T09:31:30.850Z,3.02
2023-01-19T09:33:57.801Z,3.00
2023-01-19T09:36:24.893Z,3.00
2023-01-19T09:38:51.758Z,3.04
2023-01-19T09:41:22.594Z,2.79
2023-01-19T09:43:56.755Z,2.94
2023-01-19T09:46:29.462Z,3.37
2023-01-19T09:48:59.662Z,3.27
2023-01-19T09:51:29.632Z,3.23
2023-01-19T09:54:11.373Z,3.25
2023-01-19T09:56:39.003Z,3.20
2023-01-19T09:59:22.347Z,3.19
2023-01-19T10:02:15.113Z,3.23
2023-01-19T10:04:53.739Z,3.27
2023-01-19T10:07:20.607Z,3.21
2023-01-19T10:10:07.446Z,3.26
2023-01-19T10:12:40.031Z,3.21
2023-01-19T10:15:35.853Z,3.29
2023-01-19T10:18:35.004Z,3.34
2023-01-19T10:21:17.542Z,3.03
2023-01-19T10:23:51.160Z,2.89
2023-01-19T10:26:22.261Z,2.94
2023-01-19T10:28:53.484Z,2.81
2023-01-19T10:31:23.915Z,2.76
2023-01-19T10:33:52.311Z,2.72
2023-01-19T10:36:21.859Z,2.71
2023-01-19T10:38:48.926Z,2.63
2023-01-19T10:41:26.121Z,2.46
2023-01-19T10:44:05.592Z,2.65
2023-01-19T10:46:38.822Z,2.55
2023-01-19T10:49:06.167Z,2.46
2023-01-19T10:51:33.041Z,2.36
2023-01-19T10:54:04.329Z,2.37
2023-01-19T10:56:35.155Z,2.34
2023-01-19T10:59:05.440Z,2.32
2023-01-19T11:01:36.918Z,2.40
2023-01-19T11:04:22.580Z,2.39
2023-01-19T11:06:49.274Z,2.44
2023-01-19T11:09:21.221Z,2.29
2023-01-19T11:11:51.520Z,2.33
2023-01-19T11:14:22.063Z,2.39
2023-01-19T11:16:53.065Z,2.32
2023-01-19T11:19:31.354Z,2.38
2023-01-19T11:22:22.775Z,2.34
2023-01-19T11:24:49.823Z,2.34
2023-01-19T11:27:18.666Z,2.38
2023-01-19T11:30:10.554Z,2.22
2023-01-19T11:32:37.332Z,2.23
2023-01-19T11:35:37.654Z,2.27
2023-01-19T11:38:18.504Z,2.21
2023-01-19T11:40:52.989Z,2.12
2023-01-19T11:43:21.332Z,2.07
2023-01-19T11:45:48.032Z,1.92
2023-01-19T11:48:41.770Z,1.89
2023-01-19T11:51:15.982Z,1.78
2023-01-19T11:53:49.060Z,1.62
2023-01-19T11:56:17.356Z,1.55
2023-01-19T11:58:48.438Z,1.64
2023-01-19T12:01:25.245Z,1.67
2023-01-19T12:03:55.190Z,1.84
2023-01-19T12:06:35.433Z,1.65
2023-01-19T12:09:10.739Z,1.82
2023-01-19T12:11:41.778Z,1.89
2023-01-19T12:14:22.541Z,1.87
2023-01-19T12:16:53.218Z,1.76
2023-01-19T12:19:27.056Z,1.70
2023-01-19T12:21:54.165Z,1.65
2023-01-19T12:24:30.555Z,1.61
2023-01-19T12:27:01.089Z,1.51
2023-01-19T12:29:31.536Z,1.56
2023-01-19T12:32:13.492Z,1.55
2023-01-19T12:34:46.736Z,1.66
2023-01-19T12:37:32.022Z,1.67
2023-01-19T12:40:24.355Z,1.70
2023-01-19T12:42:59.067Z,1.71
2023-01-19T12:45:32.296Z,1.87
2023-01-19T12:47:59.562Z,1.84
2023-01-19T12:50:29.275Z,1.90
2023-01-19T12:53:00.467Z,1.99
2023-01-19T12:55:33.256Z,1.96
2023-01-19T12:58:07.048Z,2.02
2023-01-19T13:00:42.804Z,1.83
2023-01-19T13:03:18.892Z,1.75
2023-01-19T13:05:54.297Z,1.77
2023-01-19T13:08:22.377Z,1.75
2023-01-19T13:11:09.666Z,1.90
2023-01-19T13:13:45.352Z,1.82
2023-01-19T13:16:18.516Z,1.90
2023-01-19T13:18:48.503Z,1.78
2023-01-19T13:21:40.390Z,1.77
2023-01-19T13:24:09.533Z,1.71
2023-01-19T13:26:52.310Z,1.54
2023-01-19T13:29:25.451Z,1.51
2023-01-19T13:32:02.355Z,1.48
2023-01-19T13:34:52.406Z,1.44
2023-01-19T13:37:26.481Z,1.47
2023-01-19T13:39:55.061Z,1.39
2023-01-19T13:42:30.784Z,1.34
2023-01-19T13:45:02.121Z,1.27
2023-01-19T13:47:41.987Z,1.35
2023-01-19T13:50:22.317Z,1.36
2023-01-19T13:52:51.544Z,1.26
2023-01-19T13:55:19.266Z,1.27
2023-01-19T13:57:47.582Z,1.44
2023-01-19T14:00:18.737Z,1.35
2023-01-19T14:02:51.865Z,1.18
2023-01-19T14:05:31.397Z,1.24
2023-01-19T14:08:02.374Z,1.27
2023-01-19T14:10:31.514Z,1.23
2023-01-19T14:13:06.370Z,1.27
2023-01-19T14:15:34.990Z,1.36
2023-01-19T14:18:18.849Z,1.31
2023-01-19T14:21:01.968Z,1.18
2023-01-19T14:23:49.137Z,1.12
2023-01-19T14:26:37.579Z,1.18
2023-01-19T14:29:10.372Z,1.21
2023-01-19T14:32:12.876Z,1.15
2023-01-19T14:34:45.149Z,1.12
2023-01-19T14:37:29.772Z,1.19
2023-01-19T14:40:11.211Z,1.15
2023-01-19T14:42:55.477Z,1.27
2023-01-19T14:45:37.737Z,1.27
2023-01-19T14:48:18.203Z,1.23
2023-01-19T14:51:02.005Z,1.20
2023-01-19T14:53:37.060Z,1.10
2023-01-19T14:56:06.502Z,1.07
2023-01-19T14:58:35.351Z,1.35
2023-01-19T15:01:06.115Z,1.32
2023-01-19T15:03:48.996Z,1.21
2023-01-19T15:06:18.568Z,1.11
2023-01-19T15:08:46.574Z,1.24
2023-01-19T15:11:30.189Z,1.25
2023-01-19T15:13:56.814Z,1.15
2023-01-19T15:16:25.222Z,1.03
2023-01-19T15:18:52.340Z,0.95
2023-01-19T15:21:23.219Z,1.02
2023-01-19T15:23:50.639Z,0.83
2023-01-19T15:26:21.077Z,0.76
2023-01-19T15:28:49.508Z,0.61
2023-01-19T15:31:18.932Z,0.52
2023-01-19T15:33:46.941Z,0.70
2023-01-19T15:36:17.864Z,0.85
2023-01-19T15:38:46.038Z,0.95
2023-01-19T15:41:27.937Z,1.15
2023-01-19T15:43:55.114Z,1.17
2023-01-19T15:46:24.050Z,0.90
2023-01-19T15:48:51.801Z,0.74
2023-01-19T15:51:21.523Z,0.61
2023-01-19T15:53:49.798Z,0.52
2023-01-19T15:56:19.369Z,0.46
2023-01-19T15:58:46.702Z,0.35
2023-01-19T16:01:16.204Z,0.32
2023-01-19T16:03:43.821Z,0.23
2023-01-19T16:06:11.287Z,0.16
2023-01-19T16:08:38.075Z,0.08
2023-01-19T16:11:07.417Z,0.01
2023-01-19T16:13:35.419Z,-0.07
2023-01-19T16:16:08.607Z,-0.13
2023-01-19T16:18:35.468Z,-0.14
2023-01-19T16:21:02.512Z,-0.18
2023-01-19T16:23:30.059Z,-0.27
2023-01-19T16:26:05.186Z,-0.27
2023-01-19T16:28:32.898Z,-0.31
2023-01-19T16:31:00.270Z,-0.36
2023-01-19T16:33:27.411Z,-0.41
2023-01-19T16:35:54.261Z,-0.40
2023-01-19T16:38:23.336Z,-0.37
2023-01-19T16:40:50.737Z,-0.35
2023-01-19T16:43:18.601Z,-0.29
2023-01-19T16:46:00.110Z,-0.30
2023-01-19T16:48:28.234Z,-0.37
2023-01-19T16:51:04.017Z,-0.24
2023-01-19T16:53:32.625Z,-0.25
2023-01-19T16:55:59.962Z,-0.27
2023-01-19T16:58:27.109Z,-0.28
2023-01-19T17:00:53.943Z,-0.24
2023-01-19T17:03:20.870Z,-0.31
2023-01-19T17:05:51.385Z,-0.33
2023-01-19T17:08:19.851Z,-0.44
2023-01-19T17:10:48.150Z,-0.50
2023-01-19T17:13:15.130Z,-0.45
2023-01-19T17:15:42.364Z,-0.36
2023-01-19T17:18:10.213Z,-0.33
2023-01-19T17:20:37.797Z,-0.31
2023-01-19T17:23:04.789Z,-0.31
2023-01-19T17:25:31.580Z,-0.28
2023-01-19T17:28:04.228Z,-0.26
2023-01-19T17:30:30.978Z,-0.25
2023-01-19T17:32:57.755Z,-0.31
2023-01-19T17:35:25.359Z,-0.38
2023-01-19T17:37:56.216Z,-0.47
2023-01-19T17:40:26.346Z,-0.61
2023-01-19T17:42:53.359Z,-0.74
2023-01-19T17:45:20.069Z,-0.91
2023-01-19T17:47:50.647Z,-1.00
2023-01-19T17:50:17.981Z,-1.16
2023-01-19T17:52:45.131Z,-1.30
2023-01-19T17:55:12.050Z,-1.41
2023-01-19T17:57:39.143Z,-1.51
2023-01-19T18:00:07.979Z,-1.60
2023-01-19T18:02:40.832Z,-1.68
2023-01-19T18:05:12.689Z,-1.76
2023-01-19T18:07:40.110Z,-1.78
2023-01-19T18:10:08.431Z,-1.82
2023-01-19T18:12:35.601Z,-1.87
2023-01-19T18:15:03.362Z,-1.95
2023-01-19T18:17:31.178Z,-1.95
2023-01-19T18:19:58.441Z,-1.96
2023-01-19T18:22:25.938Z,-1.94
2023-01-19T18:24:53.095Z,-1.94
2023-01-19T18:27:22.495Z,-1.95
2023-01-19T18:29:49.917Z,-1.91
2023-01-19T18:32:16.974Z,-1.84
2023-01-19T18:34:43.891Z,-1.78
2023-01-19T18:37:10.543Z,-1.61
2023-01-19T18:39:38.092Z,-1.47
2023-01-19T18:42:05.661Z,-1.35
2023-01-19T18:44:32.954Z,-1.25
2023-01-19T18:47:00.133Z,-1.20
2023-01-19T18:49:26.756Z,-1.22
2023-01-19T18:51:54.128Z,-1.23
2023-01-19T18:54:21.006Z,-1.19
2023-01-19T18:56:50.628Z,-1.21
2023-01-19T18:59:17.684Z,-1.14
2023-01-19T19:01:44.568Z,-1.15
2023-01-19T19:04:11.920Z,-1.10
2023-01-19T19:06:38.723Z,-0.87
2023-01-19T19:09:05.839Z,-0.91
2023-01-19T19:11:32.659Z,-0.94
2023-01-19T19:14:01.791Z,-0.94
2023-01-19T19:16:32.137Z,-0.91
2023-01-19T19:19:01.359Z,-0.89
2023-01-19T19:21:29.893Z,-0.81
2023-01-19T19:23:58.936Z,-0.80
2023-01-19T19:26:28.222Z,-0.83
2023-01-19T19:28:55.647Z,-0.79
2023-01-19T19:31:26.559Z,-0.86
2023-01-19T19:33:57.387Z,-0.88
2023-01-19T19:36:26.243Z,-0.81
2023-01-19T19:38:53.161Z,-0.87
2023-01-19T19:41:22.665Z,-0.85
2023-01-19T19:43:50.164Z,-0.83
2023-01-19T19:46:20.589Z,-0.74
2023-01-19T19:48:48.967Z,-0.71
2023-01-19T19:51:19.710Z,-0.73
2023-01-19T19:53:49.033Z,-0.75
2023-01-19T19:56:21.040Z,-0.72
2023-01-19T19:58:48.494Z,-0.70
2023-01-19T20:01:20.188Z,-0.70
2023-01-19T20:03:48.081Z,-0.72
2023-01-19T20:06:21.181Z,-0.76
2023-01-19T20:08:49.368Z,-0.77
2023-01-19T20:11:19.126Z,-0.76
2023-01-19T20:13:47.847Z,-0.69
2023-01-19T20:16:17.851Z,-0.74
2023-01-19T20:18:51.684Z,-0.75
2023-01-19T20:21:22.052Z,-0.74
2023-01-19T20:23:50.916Z,-0.71
2023-01-19T20:26:21.071Z,-0.68
2023-01-19T20:28:48.458Z,-0.66
2023-01-19T20:31:22.086Z,-0.68
2023-01-19T20:33:50.700Z,-0.68
2023-01-19T20:36:18.135Z,-0.72
2023-01-19T20:38:45.712Z,-0.72
2023-01-19T20:41:13.791Z,-0.73
2023-01-19T20:43:41.336Z,-0.73
2023-01-19T20:46:09.067Z,-0.75
2023-01-19T20:48:36.728Z,-0.76
2023-01-19T20:51:11.739Z,-0.81
2023-01-19T20:53:40.520Z,-0.78
2023-01-19T20:56:11.629Z,-0.80
2023-01-19T20:58:38.905Z,-0.75
2023-01-19T21:01:14.666Z,-0.76
2023-01-19T21:03:42.311Z,-0.78
2023-01-19T21:06:09.810Z,-0.78
2023-01-19T21:08:37.674Z,-0.76
2023-01-19T21:11:05.807Z,-0.73
2023-01-19T21:13:33.176Z,-0.74
2023-01-19T21:16:00.559Z,-0.72
2023-01-19T21:18:28.057Z,-0.77
2023-01-19T21:20:57.587Z,-0.79
2023-01-19T21:23:25.977Z,-0.79
2023-01-19T21:25:55.265Z,-0.86
2023-01-19T21:28:22.997Z,-0.90
2023-01-19T21:30:51.061Z,-0.94
2023-01-19T21:33:18.567Z,-0.98
2023-01-19T21:35:56.537Z,-1.01
2023-01-19T21:38:26.755Z,-1.05
2023-01-19T21:40:54.875Z,-1.13
2023-01-19T21:43:21.944Z,-1.20
2023-01-19T21:45:49.783Z,-1.18
2023-01-19T21:48:17.203Z,-1.22
2023-01-19T21:50:44.435Z,-1.27
2023-01-19T21:53:11.946Z,-1.32
2023-01-19T21:55:44.513Z,-1.35
2023-01-19T21:58:11.806Z,-1.40
2023-01-19T22:00:38.383Z,-1.41
2023-01-19T22:03:05.472Z,-1.40
2023-01-19T22:05:36.925Z,-1.33
2023-01-19T22:08:05.020Z,-1.43
2023-01-19T22:10:31.815Z,-1.42
2023-01-19T22:12:59.036Z,-1.43
2023-01-19T22:15:25.612Z,-1.45
2023-01-19T22:17:52.457Z,-1.42
2023-01-19T22:20:19.109Z,-1.30
2023-01-19T22:22:46.184Z,-1.28
2023-01-19T22:25:15.223Z,-1.34
2023-01-19T22:27:42.293Z,-1.34
2023-01-19T22:30:09.742Z,-1.39
2023-01-19T22:32:36.508Z,-1.36
2023-01-19T22:35:03.164Z,-1.41
2023-01-19T22:37:34.547Z,-1.39
2023-01-19T22:40:01.267Z,-1.40
2023-01-19T22:42:27.832Z,-1.40
2023-01-19T22:44:54.747Z,-1.43
2023-01-19T22:47:21.615Z,-1.48
2023-01-19T22:49:48.169Z,-1.47
2023-01-19T22:52:15.221Z,-1.55
2023-01-19T22:54:41.805Z,-1.59
2023-01-19T22:57:11.212Z,-1.65
2023-01-19T22:59:37.847Z,-1.65
2023-01-19T23:02:04.759Z,-1.68
2023-01-19T23:04:31.410Z,-1.78
2023-01-19T23:06:57.980Z,-1.82
2023-01-19T23:09:24.677Z,-1.81
2023-01-19T23:11:51.405Z,-1.85
2023-01-19T23:14:20.746Z,-1.97
2023-01-19T23:16:47.802Z,-2.02
2023-01-19T23:19:14.593Z,-2.01
2023-01-19T23:21:41.273Z,-2.01
2023-01-19T23:24:07.900Z,-1.92
2023-01-19T23:26:38.446Z,-1.97
2023-01-19T23:29:10.195Z,-2.03
2023-01-19T23:31:38.100Z,-2.06
2023-01-19T23:34:07.423Z,-2.19
2023-01-19T23:36:36.258Z,-2.38
2023-01-19T23:39:06.096Z,-2.41
2023-01-19T23:41:34.670Z,-2.48
2023-01-19T23:44:01.831Z,-2.52
2023-01-19T23:46:29.527Z,-2.60
2023-01-19T23:48:56.319Z,-2.66
2023-01-19T23:51:25.592Z,-2.70
2023-01-19T23:53:52.980Z,-2.74
2023-01-19T23:56:27.359Z,-2.76
2023-01-19T23:58:57.219Z,-2.79
